Lancaster, PA

7:06 PM EDT on October 31, 2014 (GMT -0400)
Paradise | Change Station
CLOSE
Current Station
Personal Weather Station
Location: Paradise, PA
Elevation: 365 ft
Nearby Weather Stations

Elev 365 ft 40.01 °N, 76.14 °W | Updated 9 minutes ago

Mostly Cloudy
Mostly Cloudy
49.0 °F
Feels Like 49 °F
N
1.0
Wind Variable Wind from East
Gusts 6.0 mph

Today
High -- | Low -- °F
--% Chance of Precip.
Yesterday
High -- | Low -- °F
Precip. -- in
7:32 AM 6:03 PM
First Quarter, 60% visible
Pressure 29.90 in
Visibility 10.0 miles
Clouds Mostly Cloudy 6000 ft
Windchill 49 °F
Dew Point 39 °F
Humidity 68%
Rainfall 0.00 in
Snow Depth Not available.
UV 0 out of 12
Pollen .10 out of 12
Air Quality Not available.
Flu Activity Not available.
METAR KLNS 312253Z 10007KT 10SM BKN060 08/02 A2989 RMK AO2 SLP123 T00830022

More Conditions Fewer Conditions

Pressure 29.90 in
Visibility 10.0 miles
Clouds Mostly Cloudy 6000 ft
Windchill 49 °F
Dew Point 39 °F
Humidity 68%
Rainfall 0.00 in
Snow Depth Not available.
UV 0 out of 12
Pollen .10 out of 12
Air Quality Not available.
Flu Activity Not available.
METAR KLNS 312253Z 10007KT 10SM BKN060 08/02 A2989 RMK AO2 SLP123 T00830022

More Conditions Fewer Conditions

Nowcast | as of 4:54 PM EDT on October 31, 2014

Patchy light rain will move into the lower and middle Susquehanna valley after 715 PM.

×

10-Day Weather Forecast

Almanac

Astronomy

Oct. 31, 2014 Rise Set
Actual Time
Civil Twilight
Nautical Twilight
Astronomical Twilight
Moon
Length of Visible Light
Length of Day
Tomorrow will be .
, % of the Moon is Illuminated

Today's Extremes

State Highs State Lows

Community

WunderPhotos

Upload Photos

1,766,774 photos uploaded!

WunderBlogs® & News

Nearby

Air Quality

  Air Quality AQ Index Pollutant
Not available.

Snow Depth

Station Depth Elevation

Earthquake Activity

City Distance Mag. Time & Date
Minimum magnitude displayed is 2.5.

Coastal Water Temperatures

Place Temperature

Nearby Weather Stations